Time;durP1;ratioP1;P1;durP2;ratioP2;P2;SDS_P1;SDS_P2;PMS_P1;PMS_P2;Temp;Humidity;BMP_temperature;BMP_pressure;BME280_temperature;BME280_humidity;BME280_pressure;Samples;Min_cycle;Max_cycle;Signal;HPM_P1;HPM_P2
2021/03/21 00:02:01;;;;;;;3.83;3.53;;;;;;;;;;6129256;23;20178;-80
2021/03/21 00:04:27;;;;;;;4.00;3.70;;;;;;;;;;6129076;23;20177;-80
2021/03/21 00:06:54;;;;;;;5.00;3.73;;;;;;;;;;6129031;23;20194;-80
2021/03/21 00:09:21;;;;;;;3.97;3.67;;;;;;;;;;6129615;23;20185;-80
2021/03/21 00:11:47;;;;;;;4.87;3.57;;;;;;;;;;6128521;23;20197;-81
2021/03/21 00:14:13;;;;;;;6.60;3.67;;;;;;;;;;6129242;23;20189;-80
2021/03/21 00:16:39;;;;;;;4.30;3.33;;;;;;;;;;6128499;23;20198;-80
2021/03/21 00:19:06;;;;;;;4.63;3.43;;;;;;;;;;6103570;23;20178;-80
2021/03/21 00:21:32;;;;;;;3.97;3.63;;;;;;;;;;6128685;23;20181;-80
2021/03/21 00:23:59;;;;;;;3.90;3.40;;;;;;;;;;6128706;23;20181;-80
2021/03/21 00:26:25;;;;;;;3.70;3.40;;;;;;;;;;6128930;23;20245;-80
2021/03/21 00:28:51;;;;;;;3.90;3.57;;;;;;;;;;6129147;23;20452;-80
2021/03/21 00:31:17;;;;;;;3.47;3.17;;;;;;;;;;6128572;23;20449;-80
2021/03/21 00:33:44;;;;;;;4.20;2.93;;;;;;;;;;6128810;23;20201;-80
2021/03/21 00:36:12;;;;;;;3.40;3.20;;;;;;;;;;6128821;23;20393;-80
2021/03/21 00:38:39;;;;;;;4.63;3.40;;;;;;;;;;6128263;23;20181;-80
2021/03/21 00:41:06;;;;;;;3.87;3.40;;;;;;;;;;6103287;23;20544;-80
2021/03/21 00:43:33;;;;;;;5.03;3.40;;;;;;;;;;6128702;23;20174;-80
2021/03/21 00:45:59;;;;;;;5.00;3.37;;;;;;;;;;6128260;23;20464;-80
2021/03/21 00:48:26;;;;;;;5.63;3.77;;;;;;;;;;6128795;23;20193;-80
2021/03/21 00:50:53;;;;;;;4.30;3.40;;;;;;;;;;6128161;23;20178;-80
2021/03/21 00:53:20;;;;;;;3.80;3.43;;;;;;;;;;6128311;23;20174;-80
2021/03/21 00:55:46;;;;;;;4.87;3.30;;;;;;;;;;6102365;23;20178;-80
2021/03/21 00:58:14;;;;;;;4.53;3.60;;;;;;;;;;6128195;23;20170;-80
2021/03/21 01:00:41;;;;;;;3.40;3.10;;;;;;;;;;6128677;23;20178;-80
2021/03/21 01:03:07;;;;;;;3.50;3.20;;;;;;;;;;6128699;23;20241;-80
2021/03/21 01:05:35;;;;;;;3.00;2.70;;;;;;;;;;6128969;23;20162;-80
2021/03/21 01:08:02;;;;;;;3.23;3.00;;;;;;;;;;6128108;23;20197;-80
2021/03/21 01:10:30;;;;;;;3.40;3.07;;;;;;;;;;6128328;23;20174;-80
2021/03/21 01:12:57;;;;;;;4.00;3.30;;;;;;;;;;6128142;23;20222;-80
2021/03/21 01:15:25;;;;;;;3.20;2.90;;;;;;;;;;6127757;23;20210;-80
2021/03/21 01:17:52;;;;;;;3.23;2.90;;;;;;;;;;6102916;23;20556;-80
2021/03/21 01:20:19;;;;;;;3.33;3.00;;;;;;;;;;6102560;23;20177;-79
2021/03/21 01:22:46;;;;;;;4.03;3.20;;;;;;;;;;6127227;23;20166;-80
2021/03/21 01:25:12;;;;;;;4.23;2.70;;;;;;;;;;6128622;23;20178;-80
2021/03/21 01:27:38;;;;;;;2.70;2.50;;;;;;;;;;6101841;23;20601;-80
2021/03/21 01:30:05;;;;;;;2.63;2.40;;;;;;;;;;6128511;23;20181;-80
2021/03/21 01:32:32;;;;;;;4.10;2.60;;;;;;;;;;6126842;23;20178;-80
2021/03/21 01:34:58;;;;;;;2.43;2.23;;;;;;;;;;6128027;23;20181;-80
2021/03/21 01:37:24;;;;;;;2.47;2.27;;;;;;;;;;6127691;23;20170;-80
2021/03/21 01:39:50;;;;;;;2.70;2.33;;;;;;;;;;6128630;23;20178;-80
2021/03/21 01:42:16;;;;;;;2.30;2.10;;;;;;;;;;6102104;23;20197;-80
2021/03/21 01:44:43;;;;;;;3.60;2.50;;;;;;;;;;6128343;23;20436;-80
2021/03/21 01:47:14;;;;;;;1.93;1.83;;;;;;;;;;6127819;23;20197;-80
2021/03/21 01:49:43;;;;;;;3.03;2.30;;;;;;;;;;6128376;23;20467;-80
2021/03/21 01:52:12;;;;;;;3.37;2.50;;;;;;;;;;6128142;23;20174;-80
2021/03/21 01:54:38;;;;;;;5.93;2.20;;;;;;;;;;6128377;23;20174;-80
2021/03/21 01:57:05;;;;;;;2.57;2.23;;;;;;;;;;6128000;23;20756;-80
2021/03/21 01:59:32;;;;;;;2.83;2.53;;;;;;;;;;6128331;23;20209;-80
2021/03/21 02:01:59;;;;;;;2.40;2.20;;;;;;;;;;6126768;23;20177;-80
2021/03/21 02:04:25;;;;;;;1.70;1.60;;;;;;;;;;6127904;23;20185;-80
2021/03/21 02:07:01;;;;;;;2.17;1.97;;;;;;;;;;6126218;23;20194;-80
2021/03/21 02:09:30;;;;;;;2.23;2.00;;;;;;;;;;6128259;23;20181;-80
2021/03/21 02:12:02;;;;;;;2.60;2.40;;;;;;;;;;6127676;23;20178;-80
2021/03/21 02:14:32;;;;;;;2.30;2.10;;;;;;;;;;6128281;23;20181;-80
2021/03/21 02:17:00;;;;;;;2.27;2.10;;;;;;;;;;6069927;23;20778;-80
2021/03/21 02:19:39;;;;;;;2.10;2.00;;;;;;;;;;6070411;23;20197;-80
2021/03/21 02:22:07;;;;;;;2.40;2.20;;;;;;;;;;6069956;23;20175;-80
2021/03/21 02:24:41;;;;;;;2.50;2.30;;;;;;;;;;6070303;23;20175;-80
2021/03/21 02:27:16;;;;;;;2.27;2.07;;;;;;;;;;6070000;23;20227;-80
2021/03/21 02:29:47;;;;;;;2.30;2.10;;;;;;;;;;6068822;23;20557;-80
2021/03/21 02:32:15;;;;;;;3.33;2.37;;;;;;;;;;6069522;23;20186;-80
2021/03/21 02:34:46;;;;;;;7.43;2.40;;;;;;;;;;6070686;23;20316;-80
2021/03/21 02:37:14;;;;;;;2.13;1.90;;;;;;;;;;6071049;23;20251;-80
2021/03/21 02:39:46;;;;;;;1.97;1.87;;;;;;;;;;6072023;23;20254;-80
2021/03/21 02:42:14;;;;;;;4.20;1.97;;;;;;;;;;6071782;23;20180;-80
2021/03/21 02:44:41;;;;;;;3.27;2.13;;;;;;;;;;6072022;23;20180;-80
2021/03/21 02:47:11;;;;;;;2.50;2.30;;;;;;;;;;6071780;23;20199;-80
2021/03/21 02:49:39;;;;;;;3.97;2.23;;;;;;;;;;6072284;23;20182;-80
2021/03/21 02:52:08;;;;;;;2.40;2.20;;;;;;;;;;6071635;23;20175;-80
2021/03/21 02:54:36;;;;;;;2.93;2.47;;;;;;;;;;6071576;23;20446;-80
2021/03/21 02:57:04;;;;;;;4.20;2.37;;;;;;;;;;6071594;23;20179;-80
2021/03/21 02:59:32;;;;;;;3.13;2.33;;;;;;;;;;6071790;23;20494;-80
2021/03/21 03:02:01;;;;;;;2.60;2.40;;;;;;;;;;6071329;23;20175;-80
2021/03/21 03:04:30;;;;;;;2.90;2.07;;;;;;;;;;6071558;23;20454;-80
2021/03/21 03:06:58;;;;;;;2.87;2.03;;;;;;;;;;6071468;23;20183;-80
2021/03/21 03:09:28;;;;;;;2.40;2.20;;;;;;;;;;6072197;23;20218;-80
2021/03/21 03:11:57;;;;;;;2.57;2.03;;;;;;;;;;6071660;23;20842;-80
2021/03/21 03:14:26;;;;;;;2.30;2.10;;;;;;;;;;6071975;23;20184;-80
2021/03/21 03:16:55;;;;;;;2.30;2.17;;;;;;;;;;6099480;23;20206;-80
2021/03/21 03:19:27;;;;;;;2.20;2.00;;;;;;;;;;6100199;23;20186;-80
2021/03/21 03:21:56;;;;;;;2.97;2.47;;;;;;;;;;6099729;23;20174;-80
2021/03/21 03:24:27;;;;;;;2.40;2.20;;;;;;;;;;6100381;23;20179;-80
2021/03/21 03:26:55;;;;;;;2.00;1.90;;;;;;;;;;6100083;23;20190;-80
2021/03/21 03:29:25;;;;;;;3.73;2.73;;;;;;;;;;6100338;23;20175;-80
2021/03/21 03:31:54;;;;;;;2.30;2.10;;;;;;;;;;6100207;23;20179;-80
2021/03/21 03:34:20;;;;;;;2.30;2.13;;;;;;;;;;6100469;23;20411;-80
2021/03/21 03:36:46;;;;;;;2.40;2.20;;;;;;;;;;6100161;23;20186;-80
2021/03/21 03:39:13;;;;;;;2.87;2.40;;;;;;;;;;6100032;23;20182;-80
2021/03/21 03:41:41;;;;;;;2.30;2.10;;;;;;;;;;6099992;23;20179;-80
2021/03/21 03:44:13;;;;;;;4.03;2.23;;;;;;;;;;6100323;23;20174;-80
2021/03/21 03:46:44;;;;;;;2.17;2.07;;;;;;;;;;6099838;23;20175;-80
2021/03/21 03:49:15;;;;;;;2.30;2.20;;;;;;;;;;6099962;23;20454;-80
2021/03/21 03:51:50;;;;;;;2.40;2.20;;;;;;;;;;6099576;23;20211;-80
2021/03/21 03:54:22;;;;;;;2.40;2.20;;;;;;;;;;6098823;23;20186;-80
2021/03/21 03:56:51;;;;;;;2.33;2.13;;;;;;;;;;6100326;23;20175;-80
2021/03/21 03:59:28;;;;;;;2.93;2.23;;;;;;;;;;6099732;23;20186;-80
2021/03/21 04:01:57;;;;;;;5.70;2.00;;;;;;;;;;6099574;23;20230;-80
2021/03/21 04:04:28;;;;;;;3.10;2.23;;;;;;;;;;6099465;23;20182;-80
2021/03/21 04:06:59;;;;;;;2.47;2.00;;;;;;;;;;6098314;23;20552;-80
2021/03/21 04:09:32;;;;;;;2.97;2.17;;;;;;;;;;6099848;23;20175;-80
2021/03/21 04:12:02;;;;;;;2.33;2.10;;;;;;;;;;6100056;23;20182;-80
2021/03/21 04:14:32;;;;;;;2.30;2.10;;;;;;;;;;6099361;23;20179;-80
2021/03/21 04:17:03;;;;;;;1.93;1.83;;;;;;;;;;6069379;23;20182;-80
2021/03/21 04:19:34;;;;;;;2.10;1.87;;;;;;;;;;6070900;23;20176;-80
2021/03/21 04:22:01;;;;;;;2.03;1.93;;;;;;;;;;6071290;23;20450;-80
2021/03/21 04:24:32;;;;;;;2.70;1.93;;;;;;;;;;6071067;23;20214;-80
2021/03/21 04:27:01;;;;;;;1.77;1.67;;;;;;;;;;6071121;23;20180;-80
2021/03/21 04:29:30;;;;;;;2.37;2.20;;;;;;;;;;6070631;23;20180;-80
2021/03/21 04:31:57;;;;;;;2.33;2.13;;;;;;;;;;6071211;23;20183;-80
2021/03/21 04:34:24;;;;;;;2.30;2.10;;;;;;;;;;6069236;23;20186;-80
2021/03/21 04:36:51;;;;;;;2.53;2.13;;;;;;;;;;6070700;23;20188;-80
2021/03/21 04:39:19;;;;;;;1.93;1.77;;;;;;;;;;6070612;23;20577;-80
2021/03/21 04:41:47;;;;;;;1.97;1.87;;;;;;;;;;6071066;23;20553;-80
2021/03/21 04:44:15;;;;;;;2.93;2.10;;;;;;;;;;6070545;23;20187;-80
2021/03/21 04:46:43;;;;;;;2.47;2.27;;;;;;;;;;6071004;23;20180;-80
2021/03/21 04:49:09;;;;;;;4.17;2.03;;;;;;;;;;6070296;23;20199;-80
2021/03/21 04:51:37;;;;;;;3.70;2.20;;;;;;;;;;6068964;23;20176;-79
2021/03/21 04:54:05;;;;;;;2.50;2.30;;;;;;;;;;6069338;23;20179;-79
2021/03/21 04:56:32;;;;;;;2.30;2.20;;;;;;;;;;6070789;23;20180;-79
2021/03/21 04:59:02;;;;;;;2.43;2.10;;;;;;;;;;6070575;23;20415;-79
2021/03/21 05:01:33;;;;;;;2.63;2.30;;;;;;;;;;6070693;23;20438;-81
2021/03/21 05:04:02;;;;;;;2.47;2.27;;;;;;;;;;6070739;23;20719;-79
2021/03/21 05:06:38;;;;;;;10.83;2.30;;;;;;;;;;6070856;23;20182;-79
2021/03/21 05:09:06;;;;;;;4.40;2.37;;;;;;;;;;6070442;23;20195;-78
2021/03/21 05:11:36;;;;;;;3.30;2.30;;;;;;;;;;6070794;23;20469;-79
2021/03/21 05:14:03;;;;;;;2.90;2.50;;;;;;;;;;6070928;23;20446;-79
2021/03/21 05:16:34;;;;;;;2.77;2.43;;;;;;;;;;6118613;23;20206;-79
2021/03/21 05:19:05;;;;;;;3.03;2.53;;;;;;;;;;6127774;23;20174;-79
2021/03/21 05:21:36;;;;;;;2.90;2.30;;;;;;;;;;6128445;23;20177;-79
2021/03/21 05:24:05;;;;;;;2.40;2.30;;;;;;;;;;6127749;23;20178;-79
2021/03/21 05:26:34;;;;;;;2.63;2.37;;;;;;;;;;6128063;23;20195;-79
2021/03/21 05:29:06;;;;;;;3.07;2.80;;;;;;;;;;6102211;23;20590;-80
2021/03/21 05:31:32;;;;;;;5.03;2.70;;;;;;;;;;6128417;23;20197;-79
2021/03/21 05:33:59;;;;;;;3.20;2.77;;;;;;;;;;6127620;23;20181;-80
2021/03/21 05:36:32;;;;;;;3.10;2.70;;;;;;;;;;6128427;23;20181;-79
2021/03/21 05:38:59;;;;;;;2.50;2.40;;;;;;;;;;6127816;23;20170;-80
2021/03/21 05:41:40;;;;;;;2.73;2.53;;;;;;;;;;6127754;23;20181;-79
2021/03/21 05:44:15;;;;;;;2.63;2.33;;;;;;;;;;6127318;23;20185;-80
2021/03/21 05:46:58;;;;;;;2.87;2.20;;;;;;;;;;6128248;23;20178;-80
2021/03/21 05:49:45;;;;;;;2.50;2.30;;;;;;;;;;6127597;23;20448;-79
2021/03/21 05:52:26;;;;;;;2.90;2.60;;;;;;;;;;6079579;23;20178;-78
2021/03/21 05:55:04;;;;;;;2.30;2.10;;;;;;;;;;6128675;23;20174;-80
2021/03/21 05:57:45;;;;;;;2.47;2.27;;;;;;;;;;6103633;23;20221;-79
2021/03/21 06:00:20;;;;;;;2.30;2.10;;;;;;;;;;6128336;23;20174;-79
2021/03/21 06:03:05;;;;;;;4.77;2.30;;;;;;;;;;6128182;23;20221;-79
2021/03/21 06:05:40;;;;;;;3.40;2.40;;;;;;;;;;6128209;23;20178;-79
2021/03/21 06:08:13;;;;;;;3.03;2.30;;;;;;;;;;6128158;23;20224;-79
2021/03/21 06:10:49;;;;;;;3.67;2.37;;;;;;;;;;6130183;23;20241;-79
2021/03/21 06:13:20;;;;;;;2.43;2.23;;;;;;;;;;6129570;23;20173;-79
2021/03/21 06:16:08;;;;;;;7.10;2.20;;;;;;;;;;6129422;23;20202;-79
2021/03/21 06:18:55;;;;;;;2.97;2.63;;;;;;;;;;6129871;23;20468;-79
2021/03/21 06:21:28;;;;;;;2.77;2.33;;;;;;;;;;6130120;23;20174;-79
2021/03/21 06:24:15;;;;;;;2.63;2.43;;;;;;;;;;6103589;23;20568;-79
2021/03/21 06:26:42;;;;;;;3.03;2.73;;;;;;;;;;6130278;23;20177;-79
2021/03/21 06:29:18;;;;;;;2.80;2.60;;;;;;;;;;6130023;23;20452;-79
2021/03/21 06:31:58;;;;;;;3.17;2.50;;;;;;;;;;6129952;23;20182;-79
2021/03/21 06:34:27;;;;;;;2.77;2.27;;;;;;;;;;6129475;23;20551;-80
2021/03/21 06:36:57;;;;;;;2.90;2.60;;;;;;;;;;6129884;23;20177;-80
2021/03/21 06:39:46;;;;;;;3.07;2.73;;;;;;;;;;6129513;23;20486;-80
2021/03/21 06:42:29;;;;;;;4.17;3.40;;;;;;;;;;6129916;23;20229;-79
2021/03/21 06:45:06;;;;;;;6.50;3.37;;;;;;;;;;6129667;23;20178;-80
2021/03/21 06:47:46;;;;;;;5.77;3.67;;;;;;;;;;6129617;23;20220;-79
2021/03/21 06:50:23;;;;;;;6.50;3.77;;;;;;;;;;6129882;23;20245;-79
2021/03/21 06:52:52;;;;;;;4.03;3.63;;;;;;;;;;6128807;23;20205;-80
2021/03/21 06:55:25;;;;;;;3.70;3.40;;;;;;;;;;6129172;23;20181;-80
2021/03/21 06:58:10;;;;;;;3.77;3.37;;;;;;;;;;6128958;23;20578;-80
2021/03/21 07:00:47;;;;;;;4.10;3.70;;;;;;;;;;6129791;23;20555;-80
2021/03/21 07:03:37;;;;;;;4.40;4.00;;;;;;;;;;6129595;23;20178;-79
2021/03/21 07:06:25;;;;;;;5.00;3.67;;;;;;;;;;6129743;23;20178;-80
2021/03/21 07:09:09;;;;;;;4.13;3.57;;;;;;;;;;6129512;23;20237;-80
2021/03/21 07:11:53;;;;;;;5.20;3.73;;;;;;;;;;6129428;23;20177;-80
2021/03/21 07:14:40;;;;;;;6.33;4.17;;;;;;;;;;6128695;23;20182;-80
2021/03/21 07:17:23;;;;;;;4.50;3.60;;;;;;;;;;6128932;23;20658;-80
2021/03/21 07:20:08;;;;;;;4.57;3.77;;;;;;;;;;6103574;23;20440;-80
2021/03/21 07:22:53;;;;;;;4.90;3.93;;;;;;;;;;6128615;23;20178;-80
2021/03/21 07:25:40;;;;;;;3.90;3.60;;;;;;;;;;6103189;23;20233;-80
2021/03/21 07:28:22;;;;;;;3.70;3.40;;;;;;;;;;6128765;23;20193;-80
2021/03/21 07:30:53;;;;;;;4.80;3.73;;;;;;;;;;6129057;23;20198;-80
2021/03/21 07:33:33;;;;;;;4.43;4.03;;;;;;;;;;6128398;23;20488;-80
2021/03/21 07:36:26;;;;;;;4.30;3.77;;;;;;;;;;6129269;23;20198;-79
2021/03/21 07:39:02;;;;;;;4.73;4.23;;;;;;;;;;6129282;23;20169;-82
2021/03/21 07:41:39;;;;;;;4.90;3.87;;;;;;;;;;6129119;23;20180;-82
2021/03/21 07:44:15;;;;;;;5.47;3.90;;;;;;;;;;6102996;23;20278;-80
2021/03/21 07:46:45;;;;;;;4.40;4.00;;;;;;;;;;6103476;23;20174;-80
2021/03/21 07:49:29;;;;;;;3.90;3.60;;;;;;;;;;6129173;23;20186;-81
2021/03/21 07:52:03;;;;;;;4.63;3.73;;;;;;;;;;6128926;23;20178;-82
2021/03/21 07:54:34;;;;;;;4.47;4.07;;;;;;;;;;6128925;23;20180;-80
2021/03/21 07:57:03;;;;;;;5.03;4.57;;;;;;;;;;6127671;23;20786;-82
2021/03/21 07:59:32;;;;;;;4.20;3.90;;;;;;;;;;6128849;23;20598;-81
2021/03/21 08:01:58;;;;;;;6.47;4.10;;;;;;;;;;6129037;23;20174;-82
2021/03/21 08:04:27;;;;;;;4.10;3.70;;;;;;;;;;6129092;23;20553;-80
2021/03/21 08:06:57;;;;;;;5.00;4.60;;;;;;;;;;6102973;23;20722;-80
2021/03/21 08:09:26;;;;;;;5.43;4.67;;;;;;;;;;6129069;23;20190;-82
2021/03/21 08:11:58;;;;;;;6.13;4.50;;;;;;;;;;6128094;23;20174;-81
2021/03/21 08:14:27;;;;;;;7.27;4.73;;;;;;;;;;6129103;23;20484;-81
2021/03/21 08:16:54;;;;;;;5.03;3.80;;;;;;;;;;6127681;23;20615;-83
2021/03/21 08:19:23;;;;;;;5.37;4.20;;;;;;;;;;6128109;23;20174;-81
2021/03/21 08:21:49;;;;;;;4.23;3.87;;;;;;;;;;6128691;23;20174;-81
2021/03/21 08:24:17;;;;;;;5.60;4.47;;;;;;;;;;6128738;23;20178;-81
2021/03/21 08:26:44;;;;;;;12.47;3.97;;;;;;;;;;6128234;23;20174;-82
2021/03/21 08:29:12;;;;;;;6.73;4.73;;;;;;;;;;6102178;23;20564;-81
2021/03/21 08:31:40;;;;;;;6.83;4.87;;;;;;;;;;6128290;23;20179;-81
2021/03/21 08:34:39;;;;;;;5.33;4.37;;;;;;;;;;6128560;23;20177;-79
2021/03/21 08:37:17;;;;;;;5.23;4.50;;;;;;;;;;6128314;23;20665;-81
2021/03/21 08:39:45;;;;;;;5.30;4.80;;;;;;;;;;6128817;23;20614;-81
2021/03/21 08:42:21;;;;;;;4.70;4.30;;;;;;;;;;6127721;23;20174;-82
2021/03/21 08:44:48;;;;;;;4.80;4.40;;;;;;;;;;6128672;23;20566;-81
2021/03/21 08:47:15;;;;;;;6.60;4.57;;;;;;;;;;6128344;23;20174;-82
2021/03/21 08:49:45;;;;;;;5.17;4.67;;;;;;;;;;6128112;23;20186;-81
2021/03/21 08:52:12;;;;;;;4.77;4.10;;;;;;;;;;6128583;23;20266;-81
2021/03/21 08:54:39;;;;;;;5.20;4.67;;;;;;;;;;6127883;23;20174;-81
2021/03/21 08:57:06;;;;;;;5.37;4.23;;;;;;;;;;6128560;23;20560;-80
2021/03/21 08:59:35;;;;;;;7.03;4.57;;;;;;;;;;6102381;23;20170;-81
2021/03/21 09:02:06;;;;;;;5.57;4.90;;;;;;;;;;6128202;23;20174;-81
2021/03/21 09:04:33;;;;;;;4.30;3.90;;;;;;;;;;6128403;23;20174;-81
2021/03/21 09:07:16;;;;;;;4.17;3.77;;;;;;;;;;6128153;23;20578;-81
2021/03/21 09:09:43;;;;;;;4.30;3.90;;;;;;;;;;6102212;23;20186;-81
2021/03/21 09:12:26;;;;;;;4.77;4.20;;;;;;;;;;6128159;23;20177;-80
2021/03/21 09:15:12;;;;;;;4.47;4.07;;;;;;;;;;6128031;23;20202;-81
2021/03/21 09:17:39;;;;;;;6.73;4.30;;;;;;;;;;6127858;23;20229;-81
2021/03/21 09:20:06;;;;;;;7.77;4.03;;;;;;;;;;6128656;23;20177;-81
2021/03/21 09:22:33;;;;;;;4.33;3.93;;;;;;;;;;6127512;23;20174;-80
2021/03/21 09:25:00;;;;;;;7.80;4.63;;;;;;;;;;6128223;23;20181;-81
2021/03/21 09:27:31;;;;;;;3.87;3.47;;;;;;;;;;6127616;23;20188;-80
2021/03/21 09:29:58;;;;;;;4.60;4.20;;;;;;;;;;6128220;23;20201;-82
2021/03/21 09:32:26;;;;;;;5.00;4.03;;;;;;;;;;6128227;23;20177;-84
2021/03/21 09:34:57;;;;;;;4.60;4.20;;;;;;;;;;6102824;23;20568;-83
2021/03/21 09:37:24;;;;;;;3.93;3.63;;;;;;;;;;6126769;23;20174;-80
2021/03/21 09:39:54;;;;;;;4.30;3.90;;;;;;;;;;6127411;23;20174;-83
2021/03/21 09:42:21;;;;;;;4.13;3.83;;;;;;;;;;6126143;23;20446;-83
2021/03/21 09:44:48;;;;;;;3.97;3.67;;;;;;;;;;6127302;23;20174;-83
2021/03/21 09:47:23;;;;;;;4.47;4.07;;;;;;;;;;6127053;23;20174;-82
2021/03/21 09:49:51;;;;;;;4.63;4.13;;;;;;;;;;6127639;23;20197;-83
2021/03/21 09:52:24;;;;;;;5.07;4.20;;;;;;;;;;6126617;23;20488;-83
2021/03/21 09:54:52;;;;;;;3.83;3.53;;;;;;;;;;6127765;23;20178;-83
2021/03/21 09:57:33;;;;;;;4.57;3.63;;;;;;;;;;6126995;23;20436;-83
2021/03/21 10:00:00;;;;;;;4.10;3.70;;;;;;;;;;6102277;23;20165;-83
2021/03/21 10:02:30;;;;;;;6.10;3.83;;;;;;;;;;6100958;23;20177;-83
2021/03/21 10:04:59;;;;;;;4.40;4.00;;;;;;;;;;6127489;23;20186;-83
2021/03/21 10:07:31;;;;;;;4.13;3.83;;;;;;;;;;6100671;23;20229;-82
2021/03/21 10:09:58;;;;;;;3.90;3.60;;;;;;;;;;6127764;23;20213;-83
2021/03/21 10:12:25;;;;;;;4.07;3.77;;;;;;;;;;6126674;23;20444;-82
2021/03/21 10:15:12;;;;;;;4.00;3.60;;;;;;;;;;6127034;23;20201;-83
2021/03/21 10:17:42;;;;;;;3.93;3.63;;;;;;;;;;6126954;23;20173;-83
2021/03/21 10:20:08;;;;;;;4.57;3.97;;;;;;;;;;6126899;23;20472;-82
2021/03/21 10:22:55;;;;;;;4.03;3.73;;;;;;;;;;6127248;23;20174;-82
2021/03/21 10:25:39;;;;;;;4.37;3.60;;;;;;;;;;6128275;23;20181;-81
2021/03/21 10:28:20;;;;;;;3.87;3.57;;;;;;;;;;6128066;23;20174;-83
2021/03/21 10:31:01;;;;;;;4.17;3.80;;;;;;;;;;6126716;23;20491;-84
2021/03/21 10:33:29;;;;;;;4.30;3.90;;;;;;;;;;6126737;23;20229;-84
2021/03/21 10:35:56;;;;;;;4.17;3.87;;;;;;;;;;6127615;23;20182;-85
2021/03/21 10:38:41;;;;;;;4.85;4.45;;;;;;;;;;6126658;23;20737;-83
2021/03/21 10:41:08;;;;;;;4.37;4.00;;;;;;;;;;6127529;23;20444;-83
2021/03/21 10:43:53;;;;;;;4.27;3.87;;;;;;;;;;6128315;23;20221;-83
2021/03/21 10:46:34;;;;;;;4.57;4.17;;;;;;;;;;6127997;23;20174;-81
2021/03/21 10:49:00;;;;;;;4.10;3.80;;;;;;;;;;6126352;23;20190;-82
2021/03/21 10:51:46;;;;;;;5.27;4.07;;;;;;;;;;6127746;23;20185;-79
2021/03/21 10:54:22;;;;;;;4.43;4.03;;;;;;;;;;6127257;23;20174;-82
2021/03/21 10:57:07;;;;;;;4.77;4.37;;;;;;;;;;6128457;23;20173;-81
2021/03/21 10:59:34;;;;;;;4.70;4.30;;;;;;;;;;6129179;23;20735;-82
2021/03/21 11:02:21;;;;;;;4.43;4.03;;;;;;;;;;6128851;23;20182;-81
2021/03/21 11:04:56;;;;;;;4.87;4.33;;;;;;;;;;6129329;23;20201;-81
2021/03/21 11:07:22;;;;;;;3.50;3.20;;;;;;;;;;6128917;23;20173;-78
2021/03/21 11:09:50;;;;;;;2.20;2.10;;;;;;;;;;6129602;23;20190;-80
2021/03/21 11:12:16;;;;;;;2.20;2.10;;;;;;;;;;6129464;23;20189;-79
2021/03/21 11:14:43;;;;;;;2.30;2.20;;;;;;;;;;6129546;23;20185;-80
2021/03/21 11:17:14;;;;;;;2.30;2.13;;;;;;;;;;6129183;23;20174;-80
2021/03/21 11:19:44;;;;;;;2.20;2.10;;;;;;;;;;6129459;23;20178;-80
2021/03/21 11:22:18;;;;;;;2.20;2.10;;;;;;;;;;6128925;23;20178;-80
2021/03/21 11:24:44;;;;;;;2.37;2.27;;;;;;;;;;6129137;23;20241;-79
2021/03/21 11:27:12;;;;;;;2.57;2.40;;;;;;;;;;6129371;23;20174;-78
2021/03/21 11:29:39;;;;;;;3.77;3.47;;;;;;;;;;6129307;23;20201;-79
2021/03/21 11:32:16;;;;;;;3.03;2.83;;;;;;;;;;6102943;23;20174;-78
2021/03/21 11:34:44;;;;;;;2.50;2.33;;;;;;;;;;6129561;23;20177;-79
2021/03/21 11:37:12;;;;;;;2.43;2.23;;;;;;;;;;6128835;23;20181;-79
2021/03/21 11:39:40;;;;;;;2.77;2.57;;;;;;;;;;6129207;23;20174;-79
2021/03/21 11:42:26;;;;;;;2.67;2.53;;;;;;;;;;6129196;23;20187;-79
2021/03/21 11:44:53;;;;;;;3.53;3.23;;;;;;;;;;6094403;23;20177;-79
2021/03/21 11:47:30;;;;;;;2.77;2.53;;;;;;;;;;6128523;23;20182;-78
2021/03/21 11:49:57;;;;;;;2.90;2.70;;;;;;;;;;6129251;23;20186;-77
2021/03/21 11:52:24;;;;;;;3.13;2.93;;;;;;;;;;6129070;23;20572;-77
2021/03/21 11:54:50;;;;;;;3.13;2.93;;;;;;;;;;6129186;23;20174;-79
2021/03/21 11:57:24;;;;;;;3.47;3.20;;;;;;;;;;6129109;23;20178;-78
2021/03/21 11:59:52;;;;;;;3.73;3.43;;;;;;;;;;6129316;23;20571;-78
2021/03/21 12:02:30;;;;;;;4.57;4.17;;;;;;;;;;6128830;23;20178;-79
2021/03/21 12:04:56;;;;;;;3.80;3.50;;;;;;;;;;6129264;23;20174;-78
2021/03/21 12:07:23;;;;;;;4.13;3.80;;;;;;;;;;6128504;23;20174;-79
2021/03/21 12:09:51;;;;;;;8.37;6.63;;;;;;;;;;6128701;23;20223;-79
2021/03/21 12:12:28;;;;;;;4.57;3.97;;;;;;;;;;6128963;23;20182;-78
2021/03/21 12:14:56;;;;;;;4.20;3.80;;;;;;;;;;6128830;23;20202;-78
2021/03/21 12:17:34;;;;;;;6.00;5.40;;;;;;;;;;6128708;23;20208;-79
2021/03/21 12:20:15;;;;;;;4.70;4.30;;;;;;;;;;6129109;23;20572;-79
2021/03/21 12:22:41;;;;;;;5.27;4.83;;;;;;;;;;6126923;23;20178;-80
2021/03/21 12:25:18;;;;;;;4.33;4.03;;;;;;;;;;6128403;23;20178;-79
2021/03/21 12:27:44;;;;;;;6.97;5.80;;;;;;;;;;6128006;23;20150;-79
2021/03/21 12:30:16;;;;;;;4.83;4.20;;;;;;;;;;6128846;23;20190;-79
2021/03/21 12:32:44;;;;;;;4.03;3.73;;;;;;;;;;6128605;23;20174;-77
2021/03/21 12:35:34;;;;;;;4.03;3.73;;;;;;;;;;6128571;23;20185;-78
2021/03/21 12:38:02;;;;;;;4.27;3.83;;;;;;;;;;6128169;23;20660;-77
2021/03/21 12:40:32;;;;;;;4.50;4.10;;;;;;;;;;6127442;23;20174;-77
2021/03/21 12:42:58;;;;;;;4.30;4.00;;;;;;;;;;6101384;23;20174;-78
2021/03/21 12:45:25;;;;;;;4.90;4.40;;;;;;;;;;6127786;23;20181;-77
2021/03/21 12:47:59;;;;;;;4.37;4.07;;;;;;;;;;6127017;23;20174;-77
2021/03/21 12:50:40;;;;;;;4.60;4.20;;;;;;;;;;6127697;23;20448;-78
2021/03/21 12:53:09;;;;;;;4.60;4.20;;;;;;;;;;6127312;23;20184;-80
2021/03/21 12:55:35;;;;;;;6.53;4.93;;;;;;;;;;6127906;23;20174;-77
2021/03/21 12:58:01;;;;;;;5.30;4.90;;;;;;;;;;6127553;23;20178;-78
2021/03/21 13:00:29;;;;;;;5.27;4.77;;;;;;;;;;6127459;23;20178;-78
2021/03/21 13:02:56;;;;;;;5.87;5.33;;;;;;;;;;6127645;23;20174;-78
2021/03/21 13:05:24;;;;;;;5.43;4.93;;;;;;;;;;6126626;23;20174;-78
2021/03/21 13:07:51;;;;;;;5.10;4.67;;;;;;;;;;6127101;23;20224;-77
2021/03/21 13:10:18;;;;;;;5.80;5.20;;;;;;;;;;6127211;23;20194;-78
2021/03/21 13:12:45;;;;;;;5.73;5.33;;;;;;;;;;6126677;23;20206;-79
2021/03/21 13:15:11;;;;;;;6.00;5.50;;;;;;;;;;6127401;23;20622;-78
2021/03/21 13:17:37;;;;;;;5.70;5.20;;;;;;;;;;6101408;23;20202;-78
2021/03/21 13:20:07;;;;;;;6.10;5.27;;;;;;;;;;6127656;23;20540;-78
2021/03/21 13:22:34;;;;;;;5.27;4.87;;;;;;;;;;6127418;23;20184;-78
2021/03/21 13:25:00;;;;;;;5.73;5.20;;;;;;;;;;6127372;23;20174;-82
2021/03/21 13:27:27;;;;;;;4.80;4.40;;;;;;;;;;6127073;23;20201;-79
2021/03/21 13:29:53;;;;;;;5.60;5.10;;;;;;;;;;6127013;23;20456;-78
2021/03/21 13:32:20;;;;;;;5.40;4.93;;;;;;;;;;6127544;23;20201;-79
2021/03/21 13:34:46;;;;;;;5.20;4.80;;;;;;;;;;6127424;23;20178;-78
2021/03/21 13:37:12;;;;;;;5.97;5.37;;;;;;;;;;6127832;23;20440;-79
2021/03/21 13:39:38;;;;;;;5.00;4.60;;;;;;;;;;6127632;23;20177;-78
2021/03/21 13:42:05;;;;;;;5.43;4.90;;;;;;;;;;6101950;23;20221;-79
2021/03/21 13:44:32;;;;;;;5.30;4.90;;;;;;;;;;6127752;23;20174;-79
2021/03/21 13:46:58;;;;;;;6.47;5.10;;;;;;;;;;6128017;23;20584;-80
2021/03/21 13:49:25;;;;;;;7.37;4.60;;;;;;;;;;6127831;23;20197;-81
2021/03/21 13:51:51;;;;;;;3.53;3.30;;;;;;;;;;6128163;23;20174;-80
2021/03/21 13:54:18;;;;;;;3.70;3.40;;;;;;;;;;6128120;23;20413;-80
2021/03/21 13:56:45;;;;;;;3.70;3.40;;;;;;;;;;6127497;23;20173;-81
2021/03/21 13:59:11;;;;;;;4.43;3.83;;;;;;;;;;6128070;23;20173;-82
2021/03/21 14:01:38;;;;;;;4.17;3.60;;;;;;;;;;6128084;23;20174;-82
2021/03/21 14:04:04;;;;;;;3.60;3.30;;;;;;;;;;6127893;23;20178;-79
2021/03/21 14:06:30;;;;;;;4.50;3.67;;;;;;;;;;6127767;23;20174;-80
2021/03/21 14:08:56;;;;;;;3.33;3.13;;;;;;;;;;6128223;23;20185;-80
2021/03/21 14:11:22;;;;;;;3.80;3.50;;;;;;;;;;6127839;23;20587;-80
2021/03/21 14:13:48;;;;;;;3.33;3.13;;;;;;;;;;6127890;23;20178;-79
2021/03/21 14:16:15;;;;;;;4.53;3.60;;;;;;;;;;6126592;23;20229;-80
2021/03/21 14:18:42;;;;;;;4.17;3.87;;;;;;;;;;6126968;23;20173;-80
2021/03/21 14:21:08;;;;;;;4.30;4.00;;;;;;;;;;6126994;23;20181;-81
2021/03/21 14:23:34;;;;;;;4.30;4.00;;;;;;;;;;6127166;23;20185;-81
2021/03/21 14:26:01;;;;;;;3.87;3.53;;;;;;;;;;6126620;23;20440;-80
2021/03/21 14:28:28;;;;;;;3.67;3.37;;;;;;;;;;6126635;23;20174;-81
2021/03/21 14:30:54;;;;;;;4.37;3.10;;;;;;;;;;6128504;23;20244;-81
2021/03/21 14:33:21;;;;;;;3.97;3.67;;;;;;;;;;6128651;23;20181;-81
2021/03/21 14:35:49;;;;;;;5.20;3.70;;;;;;;;;;6128938;23;20386;-82
2021/03/21 14:38:16;;;;;;;4.47;4.17;;;;;;;;;;6129025;23;20444;-81
2021/03/21 14:40:42;;;;;;;4.27;3.93;;;;;;;;;;6128966;23;20174;-80
2021/03/21 14:43:10;;;;;;;4.33;4.00;;;;;;;;;;6128647;23;20177;-80
2021/03/21 14:45:36;;;;;;;4.40;4.00;;;;;;;;;;6129313;23;20158;-80
2021/03/21 14:48:03;;;;;;;4.80;3.90;;;;;;;;;;6128150;23;20179;-81
2021/03/21 14:50:29;;;;;;;4.00;3.70;;;;;;;;;;6128558;23;20413;-79
2021/03/21 14:52:57;;;;;;;4.27;3.87;;;;;;;;;;6128686;23;20181;-80
2021/03/21 14:55:25;;;;;;;3.83;3.60;;;;;;;;;;6129087;23;20179;-81
2021/03/21 14:57:51;;;;;;;3.73;3.43;;;;;;;;;;6128575;23;20181;-80
2021/03/21 15:00:19;;;;;;;3.90;3.60;;;;;;;;;;6128725;23;20178;-82
2021/03/21 15:02:45;;;;;;;3.90;3.60;;;;;;;;;;6127411;23;20448;-80
2021/03/21 15:05:12;;;;;;;3.90;3.50;;;;;;;;;;6128267;23;20173;-79